createdAt,value
2019-05-13T00:05:03.885Z,1.40
2019-05-13T00:10:09.555Z,1.20
2019-05-13T00:15:16.044Z,1.20
2019-05-13T00:20:20.392Z,1.20
2019-05-13T00:25:24.775Z,1.10
2019-05-13T00:30:29.125Z,1.27
2019-05-13T00:35:34.063Z,1.27
2019-05-13T00:40:38.534Z,1.40
2019-05-13T00:45:44.396Z,1.80
2019-05-13T00:50:48.915Z,1.73
2019-05-13T00:55:53.742Z,1.60
2019-05-13T01:00:58.218Z,1.50
2019-05-13T01:06:04.287Z,1.80
2019-05-13T01:11:08.856Z,1.60
2019-05-13T01:16:14.068Z,1.90
2019-05-13T01:21:19.684Z,1.43
2019-05-13T01:26:24.027Z,1.63
2019-05-13T01:31:28.367Z,1.40
2019-05-13T01:36:34.024Z,1.63
2019-05-13T01:41:38.674Z,1.10
2019-05-13T01:46:43.677Z,1.73
2019-05-13T01:51:48.302Z,1.40
2019-05-13T01:56:53.470Z,1.67
2019-05-13T02:01:58.156Z,1.40
2019-05-13T02:07:04.108Z,1.40
2019-05-13T02:12:08.712Z,1.40
2019-05-13T02:17:14.606Z,1.70
2019-05-13T02:22:20.412Z,1.73
2019-05-13T02:27:25.480Z,1.67
2019-05-13T02:32:32.887Z,1.70
2019-05-13T02:37:36.087Z,1.77
2019-05-13T02:42:43.497Z,1.90
2019-05-13T02:47:46.460Z,1.85
2019-05-13T02:52:53.127Z,2.40
2019-05-13T02:57:56.920Z,2.30
2019-05-13T03:03:03.309Z,1.50
2019-05-13T03:08:08.442Z,1.57
2019-05-13T03:13:13.003Z,1.90
2019-05-13T03:18:18.450Z,1.67
2019-05-13T03:23:23.230Z,2.07
2019-05-13T03:28:27.591Z,2.12
2019-05-13T03:33:36.800Z,1.80
2019-05-13T03:38:58.181Z,1.90
2019-05-13T03:43:45.139Z,2.00
2019-05-13T03:48:52.994Z,2.17
2019-05-13T03:53:57.606Z,2.00
2019-05-13T03:59:02.828Z,1.70
2019-05-13T04:04:08.367Z,1.50
2019-05-13T04:09:22.223Z,1.50
2019-05-13T04:14:19.019Z,1.90
2019-05-13T04:19:23.580Z,2.07
2019-05-13T04:24:29.097Z,1.80
2019-05-13T04:29:33.780Z,2.17
2019-05-13T04:34:38.289Z,1.80
2019-05-13T04:39:51.219Z,1.80
2019-05-13T04:44:48.789Z,2.00
2019-05-13T04:49:53.621Z,2.02
2019-05-13T04:54:58.133Z,2.20
2019-05-13T05:00:04.304Z,2.50
2019-05-13T05:05:22.545Z,1.87
2019-05-13T05:10:38.311Z,2.00
2019-05-13T05:16:13.258Z,2.30
2019-05-13T05:21:26.990Z,1.97
2019-05-13T05:26:55.641Z,2.10
2019-05-13T05:32:15.263Z,2.17
2019-05-13T05:37:22.810Z,1.87
2019-05-13T05:42:28.028Z,2.10
2019-05-13T05:47:33.257Z,2.07
2019-05-13T05:52:38.198Z,2.10
2019-05-13T05:57:42.701Z,2.20
2019-05-13T06:02:48.670Z,2.10
2019-05-13T06:07:53.119Z,2.03
2019-05-13T06:12:57.473Z,2.40
2019-05-13T06:18:02.334Z,2.50
2019-05-13T06:23:06.849Z,1.77
2019-05-13T06:28:12.565Z,1.90
2019-05-13T06:33:17.054Z,2.43
2019-05-13T06:38:22.699Z,2.07
2019-05-13T06:43:27.310Z,2.73
2019-05-13T06:48:32.321Z,2.20
2019-05-13T06:53:36.950Z,2.23
2019-05-13T06:58:41.616Z,2.17
2019-05-13T07:03:47.276Z,2.20
2019-05-13T07:08:52.247Z,1.97
2019-05-13T07:13:56.723Z,2.33
2019-05-13T07:19:02.611Z,2.20
2019-05-13T07:24:07.134Z,2.43
2019-05-13T07:29:13.537Z,2.73
2019-05-13T07:34:17.680Z,2.63
2019-05-13T07:39:22.529Z,2.40
2019-05-13T07:44:26.894Z,2.50
2019-05-13T07:49:32.547Z,2.93
2019-05-13T07:54:36.973Z,2.40
2019-05-13T07:59:42.035Z,2.07
2019-05-13T08:04:49.444Z,2.53
2019-05-13T08:09:56.800Z,2.70
2019-05-13T08:15:02.910Z,2.60
2019-05-13T08:20:07.479Z,2.50
2019-05-13T08:25:12.683Z,2.53
2019-05-13T08:30:18.361Z,2.67
2019-05-13T08:35:23.048Z,2.50
2019-05-13T08:40:27.395Z,2.30
2019-05-13T08:45:31.766Z,2.80
2019-05-13T08:50:36.146Z,2.33
2019-05-13T08:55:42.531Z,2.17
2019-05-13T09:00:49.095Z,3.00
2019-05-13T09:05:55.002Z,2.73
2019-05-13T09:11:01.582Z,2.40
2019-05-13T09:16:05.971Z,2.30
2019-05-13T09:21:11.664Z,2.60
2019-05-13T09:26:16.254Z,1.87
2019-05-13T09:31:22.128Z,2.30
2019-05-13T09:36:27.628Z,1.90
2019-05-13T09:41:37.056Z,2.13
2019-05-13T09:46:38.070Z,1.80
2019-05-13T09:51:42.421Z,2.10
2019-05-13T09:56:46.809Z,1.97
2019-05-13T10:01:52.010Z,1.83
2019-05-13T10:06:58.180Z,2.20
2019-05-13T10:12:03.463Z,2.00
2019-05-13T10:17:08.062Z,2.10
2019-05-13T10:22:12.421Z,2.10
2019-05-13T10:27:19.068Z,2.00
2019-05-13T10:32:22.996Z,1.80
2019-05-13T10:37:27.461Z,1.77
2019-05-13T10:42:31.825Z,1.80
2019-05-13T10:47:36.181Z,2.23
2019-05-13T10:52:42.700Z,1.70
2019-05-13T10:57:46.632Z,1.93
2019-05-13T11:02:51.102Z,1.83
2019-05-13T11:07:55.542Z,2.00
2019-05-13T11:13:01.534Z,2.07
2019-05-13T11:18:06.155Z,2.63
2019-05-13T11:23:12.429Z,2.00
2019-05-13T11:28:17.082Z,1.50
2019-05-13T11:33:22.468Z,1.83
2019-05-13T11:38:26.976Z,1.67
2019-05-13T11:43:33.224Z,1.60
2019-05-13T11:48:37.438Z,1.90
2019-05-13T11:53:41.834Z,1.60
2019-05-13T11:58:46.269Z,1.80
2019-05-13T12:03:53.127Z,1.50
2019-05-13T12:08:56.833Z,1.40
2019-05-13T12:14:01.186Z,1.43
2019-05-13T12:19:05.638Z,1.50
2019-05-13T12:24:11.417Z,1.80
2019-05-13T12:29:19.167Z,1.60
2019-05-13T12:34:22.805Z,1.60
2019-05-13T12:39:27.553Z,1.57
2019-05-13T12:44:31.891Z,1.40
2019-05-13T12:49:36.881Z,1.50
2019-05-13T12:54:43.705Z,1.60
2019-05-13T12:59:47.448Z,1.70
2019-05-13T13:05:10.659Z,1.70
2019-05-13T13:09:57.997Z,1.60
2019-05-13T13:15:30.500Z,1.57
2019-05-13T13:20:09.930Z,1.37
2019-05-13T13:25:15.249Z,1.53
2019-05-13T13:30:19.809Z,1.60
2019-05-13T13:35:25.144Z,1.33
2019-05-13T13:40:35.135Z,1.77
2019-05-13T13:46:05.764Z,1.50
2019-05-13T13:50:44.475Z,1.60
2019-05-13T13:55:49.208Z,1.70
2019-05-13T14:01:05.700Z,1.70
2019-05-13T14:06:05.714Z,1.77
2019-05-13T14:11:05.908Z,1.27
2019-05-13T14:16:25.061Z,1.80
2019-05-13T14:21:16.434Z,1.67
2019-05-13T14:26:22.190Z,1.83
2019-05-13T14:31:26.773Z,1.60
2019-05-13T14:36:31.531Z,1.63
2019-05-13T14:41:38.213Z,1.10
2019-05-13T14:46:47.900Z,1.27
2019-05-13T14:51:53.091Z,1.67
2019-05-13T14:56:58.656Z,1.20
2019-05-13T15:02:03.142Z,1.50
2019-05-13T15:07:07.508Z,1.40
2019-05-13T15:12:12.660Z,1.80
2019-05-13T15:17:17.033Z,1.40
2019-05-13T15:22:22.737Z,1.40
2019-05-13T15:27:27.362Z,1.30
2019-05-13T15:32:32.700Z,1.20
2019-05-13T15:37:37.232Z,1.00
2019-05-13T15:42:43.114Z,1.20
2019-05-13T15:47:47.483Z,1.43
2019-05-13T15:52:51.913Z,1.70
2019-05-13T15:57:56.667Z,1.23
2019-05-13T16:03:01.714Z,1.60
2019-05-13T16:08:06.257Z,1.30
2019-05-13T16:13:11.816Z,1.33
2019-05-13T16:18:16.850Z,1.43
2019-05-13T16:23:21.385Z,1.70
2019-05-13T16:28:25.744Z,1.43
2019-05-13T16:33:31.389Z,1.53
2019-05-13T16:38:36.085Z,1.40
2019-05-13T16:43:42.574Z,1.67
2019-05-13T16:48:46.509Z,1.70
2019-05-13T16:53:52.308Z,1.70
2019-05-13T16:58:56.827Z,1.50
2019-05-13T17:04:02.036Z,1.77
2019-05-13T17:09:06.824Z,1.87
2019-05-13T17:14:11.449Z,1.77
2019-05-13T17:19:15.850Z,1.67
2019-05-13T17:24:22.403Z,1.60
2019-05-13T17:29:26.336Z,1.63
2019-05-13T17:34:31.875Z,1.87
2019-05-13T17:39:36.584Z,1.53
2019-05-13T17:44:45.976Z,1.70
2019-05-13T17:49:48.366Z,1.73
2019-05-13T17:54:52.742Z,1.60
2019-05-13T17:59:57.113Z,1.60
2019-05-13T18:05:02.059Z,1.77
2019-05-13T18:10:07.008Z,1.73
2019-05-13T18:15:12.111Z,1.93
2019-05-13T18:20:16.988Z,2.00
2019-05-13T18:25:22.321Z,2.30
2019-05-13T18:30:26.935Z,2.60
2019-05-13T18:35:32.365Z,2.70
2019-05-13T18:40:38.364Z,2.73
2019-05-13T18:45:51.911Z,2.73
2019-05-13T18:50:57.402Z,4.33
2019-05-13T18:56:03.843Z,2.97
2019-05-13T19:01:11.252Z,2.43
2019-05-13T19:06:15.454Z,2.43
2019-05-13T19:11:22.113Z,2.43
2019-05-13T19:16:25.871Z,2.77
2019-05-13T19:21:31.058Z,2.93
2019-05-13T19:26:36.632Z,2.80
2019-05-13T19:31:41.759Z,3.10
2019-05-13T19:36:46.414Z,3.03
2019-05-13T19:41:50.762Z,2.90
2019-05-13T19:46:55.185Z,2.87
2019-05-13T19:52:01.908Z,3.00
2019-05-13T19:57:05.782Z,2.57
2019-05-13T20:02:12.185Z,3.60
2019-05-13T20:07:16.402Z,2.40
2019-05-13T20:12:21.284Z,2.30
2019-05-13T20:17:25.724Z,3.00
2019-05-13T20:22:31.343Z,2.97
2019-05-13T20:27:35.883Z,3.10
2019-05-13T20:32:40.274Z,2.43
2019-05-13T20:37:44.650Z,2.50
2019-05-13T20:42:51.597Z,1.90
2019-05-13T20:47:56.137Z,2.43
2019-05-13T20:53:00.545Z,2.37
2019-05-13T20:58:04.857Z,2.30
2019-05-13T21:03:11.561Z,2.27
2019-05-13T21:08:15.333Z,2.10
2019-05-13T21:13:21.182Z,2.07
2019-05-13T21:18:25.589Z,2.23
2019-05-13T21:23:31.302Z,2.50
2019-05-13T21:28:35.802Z,2.63
2019-05-13T21:33:40.143Z,2.70
2019-05-13T21:38:44.529Z,2.03
2019-05-13T21:43:48.923Z,2.20
2019-05-13T21:48:53.401Z,2.37
2019-05-13T21:54:01.217Z,1.70
2019-05-13T21:59:05.754Z,2.27
2019-05-13T22:04:12.130Z,1.80
2019-05-13T22:09:16.204Z,1.40
2019-05-13T22:14:20.686Z,1.70
2019-05-13T22:19:25.008Z,1.90
2019-05-13T22:24:31.226Z,1.70
2019-05-13T22:29:35.414Z,1.67
2019-05-13T22:34:41.741Z,1.60
2019-05-13T22:39:45.885Z,1.77
2019-05-13T22:44:52.270Z,1.70
2019-05-13T22:49:56.964Z,1.70
2019-05-13T22:55:02.441Z,1.70
2019-05-13T23:00:08.233Z,1.97
2019-05-13T23:05:14.195Z,1.83
2019-05-13T23:10:18.625Z,1.63
2019-05-13T23:15:23.004Z,2.20
2019-05-13T23:20:27.366Z,1.82
2019-05-13T23:25:32.101Z,2.10
2019-05-13T23:30:36.596Z,2.40
2019-05-13T23:35:41.873Z,2.60
2019-05-13T23:40:46.490Z,1.90
2019-05-13T23:45:51.388Z,2.17
2019-05-13T23:50:55.800Z,2.00
2019-05-13T23:56:02.002Z,2.53
